createdAt,value
2023-01-04T00:01:19.833Z,6.66
2023-01-04T00:06:22.043Z,6.81
2023-01-04T00:11:24.919Z,6.87
2023-01-04T00:16:28.664Z,6.78
2023-01-04T00:21:31.474Z,6.74
2023-01-04T00:26:35.170Z,6.66
2023-01-04T00:31:37.217Z,6.55
2023-01-04T00:36:39.141Z,6.44
2023-01-04T00:41:58.728Z,6.37
2023-01-04T00:47:03.390Z,6.25
2023-01-04T00:52:05.647Z,6.08
2023-01-04T00:57:08.934Z,6.09
2023-01-04T01:02:10.994Z,6.02
2023-01-04T01:07:13.009Z,6.04
2023-01-04T01:12:15.072Z,5.94
2023-01-04T01:17:16.976Z,5.96
2023-01-04T01:22:19.148Z,6.07
2023-01-04T01:27:21.045Z,6.10
2023-01-04T01:32:23.270Z,5.93
2023-01-04T01:37:25.238Z,5.81
2023-01-04T01:42:27.160Z,5.80
2023-01-04T01:47:43.190Z,5.92
2023-01-04T01:52:45.072Z,6.04
2023-01-04T01:57:50.325Z,5.95
2023-01-04T02:03:27.726Z,5.62
2023-01-04T02:08:30.439Z,5.49
2023-01-04T02:13:54.477Z,5.45
2023-01-04T02:19:02.405Z,5.24
2023-01-04T02:24:18.140Z,5.07
2023-01-04T02:29:29.211Z,4.98
2023-01-04T02:34:58.548Z,5.03
2023-01-04T02:40:04.252Z,4.88
2023-01-04T02:45:07.526Z,4.91
2023-01-04T02:50:33.265Z,4.60
2023-01-04T02:56:06.000Z,4.63
2023-01-04T03:01:43.914Z,4.50
2023-01-04T03:06:57.817Z,4.56
2023-01-04T03:12:23.838Z,4.23
2023-01-04T03:17:27.752Z,4.30
2023-01-04T03:22:53.089Z,4.33
2023-01-04T03:28:15.595Z,4.34
2023-01-04T03:33:36.919Z,4.16
2023-01-04T03:39:05.543Z,4.00
2023-01-04T03:44:44.833Z,4.08
2023-01-04T03:49:57.584Z,3.92
2023-01-04T03:55:02.162Z,3.92
2023-01-04T04:00:14.811Z,3.83
2023-01-04T04:05:43.450Z,3.86
2023-01-04T04:10:45.566Z,3.83
2023-01-04T04:15:48.220Z,3.77
2023-01-04T04:20:57.402Z,3.76
2023-01-04T04:25:59.404Z,3.89
2023-01-04T04:31:01.684Z,3.82
2023-01-04T04:36:04.223Z,3.78
2023-01-04T04:41:26.403Z,3.76
2023-01-04T04:46:28.787Z,3.72
2023-01-04T04:51:30.762Z,3.71
2023-01-04T04:56:32.991Z,3.69
2023-01-04T05:01:35.401Z,3.65
2023-01-04T05:06:37.373Z,3.59
2023-01-04T05:11:57.909Z,3.60
2023-01-04T05:17:00.127Z,3.64
2023-01-04T05:22:02.200Z,3.63
2023-01-04T05:27:04.146Z,3.58
2023-01-04T05:32:06.136Z,3.68
2023-01-04T05:37:08.132Z,3.54
2023-01-04T05:42:25.099Z,3.67
2023-01-04T05:47:27.840Z,3.75
2023-01-04T05:52:29.887Z,3.79
2023-01-04T05:57:32.094Z,3.76
2023-01-04T06:02:34.237Z,3.65
2023-01-04T06:07:36.842Z,3.67
2023-01-04T06:12:39.146Z,3.54
2023-01-04T06:17:41.368Z,3.62
2023-01-04T06:22:43.810Z,3.58
2023-01-04T06:27:45.759Z,3.62
2023-01-04T06:32:47.643Z,3.62
2023-01-04T06:37:49.509Z,3.67
2023-01-04T06:42:51.448Z,3.74
2023-01-04T06:47:53.510Z,3.69
2023-01-04T06:52:55.394Z,3.54
2023-01-04T06:57:59.752Z,3.60
2023-01-04T07:03:13.608Z,3.79
2023-01-04T07:08:17.874Z,3.91
2023-01-04T07:13:19.800Z,3.94
2023-01-04T07:18:22.022Z,4.17
2023-01-04T07:23:24.151Z,4.27
2023-01-04T07:28:46.017Z,4.33
2023-01-04T07:33:50.700Z,4.45
2023-01-04T07:38:52.645Z,4.57
2023-01-04T07:43:54.537Z,4.71
2023-01-04T07:48:56.529Z,4.86
2023-01-04T07:53:59.050Z,4.92
2023-01-04T07:59:00.993Z,4.93
2023-01-04T08:04:03.609Z,5.02
2023-01-04T08:09:06.875Z,5.07
2023-01-04T08:14:09.158Z,5.13
2023-01-04T08:19:19.405Z,5.07
2023-01-04T08:24:21.800Z,5.01
2023-01-04T08:29:23.723Z,5.01
2023-01-04T08:34:25.687Z,5.21
2023-01-04T08:39:29.586Z,5.45
2023-01-04T08:44:34.471Z,5.56
2023-01-04T08:49:36.408Z,5.52
2023-01-04T08:54:38.401Z,5.69
2023-01-04T08:59:40.348Z,5.78
2023-01-04T09:04:42.334Z,6.12
2023-01-04T09:09:44.565Z,6.29
2023-01-04T09:14:46.533Z,6.35
2023-01-04T09:19:48.399Z,6.44
2023-01-04T09:24:50.511Z,6.50
2023-01-04T09:29:52.543Z,6.74
2023-01-04T09:34:56.303Z,7.01
2023-01-04T09:39:58.079Z,7.40
2023-01-04T09:45:25.379Z,7.81
2023-01-04T09:50:46.330Z,7.45
2023-01-04T09:55:52.640Z,7.81
2023-01-04T10:01:05.187Z,7.92
2023-01-04T10:06:12.428Z,7.94
2023-01-04T10:11:14.269Z,8.16
2023-01-04T10:17:12.093Z,8.00
2023-01-04T10:22:15.703Z,8.31
2023-01-04T10:27:50.748Z,8.21
2023-01-04T10:33:00.892Z,8.41
2023-01-04T10:38:10.320Z,8.78
2023-01-04T10:43:20.927Z,8.95
2023-01-04T10:48:33.229Z,9.35
2023-01-04T10:53:50.211Z,9.20
2023-01-04T10:59:15.895Z,9.40
2023-01-04T11:04:23.987Z,9.45
2023-01-04T11:09:42.554Z,9.34
2023-01-04T11:14:49.746Z,9.23
2023-01-04T11:19:52.740Z,9.26
2023-01-04T11:25:33.936Z,9.71
2023-01-04T11:30:32.483Z,9.74
2023-01-04T11:35:42.007Z,10.00
2023-01-04T11:41:06.494Z,9.83
2023-01-04T11:46:17.665Z,9.77
2023-01-04T11:51:29.215Z,9.63
2023-01-04T11:56:36.666Z,9.86
2023-01-04T12:01:42.034Z,9.85
2023-01-04T12:07:09.003Z,9.74
2023-01-04T12:12:15.991Z,9.93
2023-01-04T12:17:21.087Z,9.90
2023-01-04T12:22:37.618Z,9.61
2023-01-04T12:27:47.680Z,9.91
2023-01-04T12:32:49.831Z,9.88
2023-01-04T12:37:51.853Z,10.27
2023-01-04T12:43:26.818Z,10.41
2023-01-04T12:48:47.130Z,9.80
2023-01-04T12:53:49.998Z,9.80
2023-01-04T12:59:25.158Z,10.09
2023-01-04T13:04:40.958Z,10.09
2023-01-04T13:09:54.300Z,9.93
2023-01-04T13:15:04.506Z,9.54
2023-01-04T13:20:22.659Z,9.90
2023-01-04T13:25:25.262Z,9.88
2023-01-04T13:30:34.662Z,9.59
2023-01-04T13:35:37.130Z,9.96
2023-01-04T13:40:49.101Z,10.01
2023-01-04T13:46:28.619Z,9.90
2023-01-04T13:51:37.788Z,10.07
2023-01-04T13:56:40.620Z,10.00
2023-01-04T14:01:49.088Z,10.09
2023-01-04T14:06:54.803Z,10.04
2023-01-04T14:12:08.031Z,9.82
2023-01-04T14:17:10.292Z,9.89
2023-01-04T14:22:41.580Z,9.82
2023-01-04T14:27:43.559Z,9.67
2023-01-04T14:33:14.032Z,9.86
2023-01-04T14:38:19.021Z,9.92
2023-01-04T14:43:35.547Z,9.65
2023-01-04T14:48:37.775Z,9.54
2023-01-04T14:53:39.956Z,9.91
2023-01-04T14:58:41.932Z,9.70
2023-01-04T15:03:43.844Z,9.94
2023-01-04T15:08:45.957Z,9.94
2023-01-04T15:13:48.547Z,9.79
2023-01-04T15:18:50.527Z,9.93
2023-01-04T15:23:52.388Z,9.59
2023-01-04T15:28:54.360Z,9.55
2023-01-04T15:33:56.274Z,9.32
2023-01-04T15:38:58.620Z,9.41
2023-01-04T15:44:00.605Z,9.10
2023-01-04T15:49:02.673Z,9.19
2023-01-04T15:54:04.738Z,9.02
2023-01-04T15:59:06.752Z,9.39
2023-01-04T16:04:11.512Z,9.22
2023-01-04T16:09:13.458Z,9.40
2023-01-04T16:14:15.416Z,9.24
2023-01-04T16:19:17.325Z,9.66
2023-01-04T16:24:45.420Z,9.42
2023-01-04T16:29:41.391Z,9.54
2023-01-04T16:34:43.545Z,9.68
2023-01-04T16:45:08.492Z,9.59
2023-01-04T16:50:12.457Z,9.71
2023-01-04T16:55:16.231Z,9.75
2023-01-04T17:00:22.385Z,9.78
2023-01-04T17:05:24.840Z,9.71
2023-01-04T17:10:29.533Z,9.36
2023-01-04T17:15:47.094Z,9.86
2023-01-04T17:20:54.747Z,9.83
2023-01-04T17:26:01.750Z,9.88
2023-01-04T17:31:09.674Z,9.83
2023-01-04T17:36:13.414Z,9.90
2023-01-04T17:41:26.416Z,10.05
2023-01-04T17:46:34.704Z,9.39
2023-01-04T17:51:37.635Z,9.76
2023-01-04T17:56:39.900Z,9.95
2023-01-04T18:01:41.937Z,9.80
2023-01-04T18:06:43.862Z,9.56
2023-01-04T18:11:45.982Z,9.67
2023-01-04T18:16:57.651Z,9.49
2023-01-04T18:22:00.045Z,9.78
2023-01-04T18:27:20.769Z,9.53
2023-01-04T18:32:26.067Z,9.70
2023-01-04T18:37:28.115Z,9.50
2023-01-04T18:42:31.423Z,9.51
2023-01-04T18:47:33.660Z,9.94
2023-01-04T18:52:37.065Z,9.62
2023-01-04T18:57:39.441Z,9.80
2023-01-04T19:02:41.782Z,9.93
2023-01-04T19:07:43.867Z,9.77
2023-01-04T19:12:46.006Z,9.72
2023-01-04T19:17:47.923Z,10.14
2023-01-04T19:22:49.925Z,9.66
2023-01-04T19:27:51.844Z,9.53
2023-01-04T19:32:55.399Z,9.85
2023-01-04T19:37:58.222Z,9.64
2023-01-04T19:43:00.431Z,9.94
2023-01-04T19:48:02.453Z,9.83
2023-01-04T19:53:04.360Z,9.85
2023-01-04T19:58:07.415Z,10.01
2023-01-04T20:03:09.763Z,9.71
2023-01-04T20:08:22.158Z,10.01
2023-01-04T20:13:24.089Z,10.01
2023-01-04T20:18:26.046Z,9.77
2023-01-04T20:23:29.320Z,9.64
2023-01-04T20:28:31.158Z,9.92
2023-01-04T20:33:33.335Z,9.83
2023-01-04T20:38:40.341Z,9.99
2023-01-04T20:43:43.499Z,9.82
2023-01-04T20:48:46.505Z,9.81
2023-01-04T20:53:48.836Z,10.25
2023-01-04T20:58:52.076Z,9.71
2023-01-04T21:03:54.245Z,9.84
2023-01-04T21:08:56.285Z,10.00
2023-01-04T21:13:58.289Z,9.79
2023-01-04T21:19:00.241Z,10.43
2023-01-04T21:24:02.645Z,10.33
2023-01-04T21:29:04.627Z,10.29
2023-01-04T21:34:12.848Z,10.45
2023-01-04T21:39:15.754Z,10.68
2023-01-04T21:44:18.183Z,10.62
2023-01-04T21:49:20.130Z,10.48
2023-01-04T21:54:21.993Z,10.64
2023-01-04T21:59:24.148Z,10.70
2023-01-04T22:04:26.694Z,10.48
2023-01-04T22:09:28.687Z,10.59
2023-01-04T22:14:32.927Z,10.81
2023-01-04T22:19:34.871Z,10.71
2023-01-04T22:24:38.306Z,10.45
2023-01-04T22:29:40.302Z,10.34
2023-01-04T22:34:42.152Z,10.67
2023-01-04T22:39:44.136Z,11.04
2023-01-04T22:44:46.815Z,10.86
2023-01-04T22:49:49.936Z,10.85
2023-01-04T22:54:51.801Z,10.81
2023-01-04T22:59:54.193Z,11.10
2023-01-04T23:04:56.107Z,10.83
2023-01-04T23:09:58.112Z,11.10
2023-01-04T23:15:00.319Z,11.09
2023-01-04T23:20:06.517Z,10.98
2023-01-04T23:25:11.221Z,11.18
2023-01-04T23:30:13.983Z,11.34
2023-01-04T23:35:16.049Z,11.31
2023-01-04T23:40:18.020Z,11.45
2023-01-04T23:45:20.105Z,11.26
2023-01-04T23:50:22.262Z,11.62
2023-01-04T23:55:24.131Z,11.32
